»·PEaware :: DAL143 KSNA-KSMF

DAL143 :: KSNA-KSMF

FLIGHT INFORMATION

Flight Status: Arrived
Operator:
Delta Air Lines
More flights by this operator :: More flights under this callsign
Pilot: Anonymous 16492 (16492)
Aircraft: BOEING 737-200
(B732)
More flights by this aircraft type
Origin: KSNA John Wayne-Orange Co
United States
Destination: KSMF Sacramento Intl
United States
More flights between these airports :: More routes between these airports
Route: HHERO3 EHF BUMPI NURAY SUUTR2
File this flight plan on PilotEdge
Remarks:
Altitude:
(Current/Filed)
32,000ft
Speed:
(Current/Filed)
444kts
Departed: 21-Aug-18 06:23 PM
Arrived: 21-Aug-18 07:38 PM
Distance/Time
Traveled:
354nm/1:15
Distance/Time
To Go:
Arrived

Flight Plot

Page will automatically refresh every two minutes.

Flight plan parsing failed; only flown route is shown


Map Options




Map Legend


Flown Route
Filed Route
Departure Airport
Arrival Airport
Navaid (VOR, NDB)
Fix

Horizontal Profiles

Position Reports

Time Latitude Longitude Heading Altitude Ground
Speed
21-Aug-18 17:57 33.677945 -117.863196 116 65ft 0kts
21-Aug-18 17:58 33.677945 -117.863196 116 65ft 0kts
21-Aug-18 17:59 33.677945 -117.863196 116 65ft 0kts
21-Aug-18 18:00 33.677945 -117.863196 116 65ft 0kts
21-Aug-18 18:01 33.677945 -117.863196 116 65ft 0kts
21-Aug-18 18:02 33.677945 -117.863196 116 65ft 0kts
21-Aug-18 18:03 33.677945 -117.863196 116 65ft 0kts
21-Aug-18 18:04 33.677945 -117.863196 116 65ft 0kts
21-Aug-18 18:05 33.677945 -117.863196 116 65ft 0kts
21-Aug-18 18:06 33.677945 -117.863196 116 65ft 0kts
21-Aug-18 18:07 33.677945 -117.863196 116 65ft 0kts
21-Aug-18 18:08 33.677945 -117.863196 116 65ft 0kts
21-Aug-18 18:09 33.677945 -117.863196 116 65ft 0kts
21-Aug-18 18:10 33.677945 -117.863196 116 65ft 0kts
21-Aug-18 18:11 33.677945 -117.863196 116 65ft 0kts
21-Aug-18 18:12 33.677945 -117.863196 116 65ft 0kts
21-Aug-18 18:13 33.677945 -117.863196 116 65ft 0kts
21-Aug-18 18:14 33.677945 -117.863196 116 65ft 0kts
21-Aug-18 18:15 33.678119 -117.863617 116 65ft 0kts
21-Aug-18 18:16 33.677986 -117.864007 26 65ft 0kts
21-Aug-18 18:17 33.677987 -117.864007 26 65ft 0kts
21-Aug-18 18:18 33.677987 -117.864007 26 65ft 0kts
21-Aug-18 18:19 33.678756 -117.863499 30 65ft 11kts
21-Aug-18 18:20 33.680609 -117.862986 298 65ft 0kts
21-Aug-18 18:21 33.680609 -117.862986 298 65ft 0kts
21-Aug-18 18:22 33.680609 -117.862986 298 65ft 0kts
21-Aug-18 18:23 33.681358 -117.864974 246 65ft 10kts
21-Aug-18 18:24 33.679459 -117.866459 207 65ft 64kts
21-Aug-18 18:25 33.641696 -117.889169 191 1769ft 196kts
21-Aug-18 18:26 33.591135 -117.896678 188 5006ft 204kts
21-Aug-18 18:27 33.537667 -117.939349 222 6477ft 252kts
21-Aug-18 18:28 33.486360 -117.996202 229 8755ft 259kts
21-Aug-18 18:29 33.447738 -118.069889 238 10828ft 267kts
21-Aug-18 18:30 33.415271 -118.149153 270 12708ft 275kts
21-Aug-18 18:31 33.428637 -118.239476 280 14044ft 298kts
21-Aug-18 18:32 33.458624 -118.342046 295 14063ft 359kts
21-Aug-18 18:33 33.506726 -118.447749 311 15454ft 366kts
21-Aug-18 18:34 33.602541 -118.474158 2 17183ft 364kts
21-Aug-18 18:35 33.704430 -118.462815 4 18233ft 374kts
21-Aug-18 18:36 33.807521 -118.459622 358 19218ft 379kts
21-Aug-18 18:37 33.912470 -118.459691 358 20113ft 385kts
21-Aug-18 18:38 34.019204 -118.462941 351 20916ft 389kts
21-Aug-18 18:39 34.124727 -118.478661 350 21629ft 394kts
21-Aug-18 18:40 34.232757 -118.495224 350 22390ft 402kts
21-Aug-18 18:41 34.343279 -118.512250 350 23749ft 409kts
21-Aug-18 18:42 34.456088 -118.529686 350 24912ft 416kts
21-Aug-18 18:43 34.569040 -118.547191 350 25953ft 423kts
21-Aug-18 18:44 34.684990 -118.565214 350 26856ft 430kts
21-Aug-18 18:45 34.800486 -118.583212 350 27693ft 435kts
21-Aug-18 18:46 34.919238 -118.601767 349 28516ft 439kts
21-Aug-18 18:47 35.032061 -118.642480 321 29333ft 426kts
21-Aug-18 18:48 35.117536 -118.723443 317 29902ft 429kts
21-Aug-18 18:49 35.207059 -118.813778 316 30395ft 434kts
21-Aug-18 18:50 35.297256 -118.905633 317 30915ft 436kts
21-Aug-18 18:51 35.388412 -118.998772 317 31500ft 435kts
21-Aug-18 18:52 35.478780 -119.089110 327 31917ft 442kts
21-Aug-18 18:53 35.589815 -119.149073 335 31929ft 456kts
21-Aug-18 18:54 35.699165 -119.203691 335 31929ft 465kts
21-Aug-18 18:55 35.813736 -119.260775 335 31930ft 472kts
21-Aug-18 18:56 35.929103 -119.318416 335 31935ft 478kts
21-Aug-18 18:57 36.045846 -119.376928 335 31941ft 482kts
21-Aug-18 18:58 36.161060 -119.434841 335 31929ft 470kts
21-Aug-18 18:59 36.277675 -119.494669 331 31927ft 456kts
21-Aug-18 19:00 36.385815 -119.564316 330 31930ft 446kts
21-Aug-18 19:01 36.489436 -119.631882 329 31931ft 439kts
21-Aug-18 19:02 36.582956 -119.693068 329 31932ft 433kts
21-Aug-18 19:03 36.674157 -119.762728 325 31928ft 428kts
21-Aug-18 19:04 36.761548 -119.831293 325 31931ft 424kts
21-Aug-18 19:05 36.846723 -119.898265 325 31933ft 421kts
21-Aug-18 19:06 36.934712 -119.967634 324 31940ft 419kts
21-Aug-18 19:07 37.023102 -120.037400 323 31664ft 411kts
21-Aug-18 19:08 37.108924 -120.105505 322 29163ft 437kts
21-Aug-18 19:09 37.206387 -120.183015 322 28943ft 430kts
21-Aug-18 19:10 37.304446 -120.261255 322 28942ft 433kts
21-Aug-18 19:11 37.402373 -120.339631 322 28942ft 436kts
21-Aug-18 19:12 37.494098 -120.418011 316 28947ft 433kts
21-Aug-18 19:13 37.576402 -120.500737 316 27118ft 417kts
21-Aug-18 19:14 37.659257 -120.583866 317 23237ft 405kts
21-Aug-18 19:15 37.736429 -120.661375 317 19809ft 388kts
21-Aug-18 19:16 37.808966 -120.734623 318 16845ft 377kts
21-Aug-18 19:17 37.870464 -120.796831 319 15441ft 364kts
21-Aug-18 19:18 37.942047 -120.869460 319 13746ft 358kts
21-Aug-18 19:19 38.014137 -120.942764 319 13413ft 353kts
21-Aug-18 19:20 38.083648 -121.019184 309 12983ft 342kts
21-Aug-18 19:21 38.142205 -121.104365 309 12298ft 330kts
21-Aug-18 19:22 38.200189 -121.189922 310 10967ft 321kts
21-Aug-18 19:23 38.256562 -121.264221 314 10142ft 273kts
21-Aug-18 19:24 38.305982 -121.326854 314 8188ft 264kts
21-Aug-18 19:25 38.353221 -121.386788 314 6956ft 231kts
21-Aug-18 19:26 38.397599 -121.443250 314 7001ft 258kts
21-Aug-18 19:27 38.449314 -121.509135 314 6986ft 299kts
21-Aug-18 19:28 38.503301 -121.569890 320 6817ft 241kts
21-Aug-18 19:29 38.553535 -121.620907 320 5006ft 235kts
21-Aug-18 19:30 38.600268 -121.668216 319 4995ft 221kts
21-Aug-18 19:31 38.655279 -121.686048 351 3960ft 216kts
21-Aug-18 19:32 38.713731 -121.693485 358 3964ft 214kts
21-Aug-18 19:33 38.773834 -121.692808 1 2654ft 231kts
21-Aug-18 19:34 38.831577 -121.691522 1 1969ft 194kts
21-Aug-18 19:35 38.867066 -121.654822 92 2001ft 191kts
21-Aug-18 19:36 38.850949 -121.601579 161 1989ft 168kts
21-Aug-18 19:37 38.807777 -121.584005 163 2062ft 147kts
21-Aug-18 19:38 38.774043 -121.578968 179 1472ft 111kts
21-Aug-18 19:39 38.751720 -121.579067 179 24ft 0kts

Navigation Log

Ident Type
Flight plan parsing failed, navigation log unavailable